sensor_id;sensor_type;location;lat;lon;timestamp;pressure;altitude;pressure_sealevel;temperature;humidity
23176;BME280;19910;42.652;23.332;2023-03-22T00:01:38;94302.63;;;9.15;100.00
23176;BME280;19910;42.652;23.332;2023-03-22T00:04:05;94302.47;;;9.12;100.00
23176;BME280;19910;42.652;23.332;2023-03-22T00:06:32;94301.38;;;9.04;100.00
23176;BME280;19910;42.652;23.332;2023-03-22T00:08:59;94298.41;;;8.97;100.00
23176;BME280;19910;42.652;23.332;2023-03-22T00:11:26;94298.19;;;9.02;100.00
23176;BME280;19910;42.652;23.332;2023-03-22T00:13:54;94290.56;;;9.04;100.00
23176;BME280;19910;42.652;23.332;2023-03-22T00:16:23;94294.53;;;9.07;100.00
23176;BME280;19910;42.652;23.332;2023-03-22T00:18:50;94292.63;;;9.07;100.00
23176;BME280;19910;42.652;23.332;2023-03-22T00:21:17;94288.75;;;9.17;100.00
23176;BME280;19910;42.652;23.332;2023-03-22T00:23:44;94283.22;;;9.13;100.00
23176;BME280;19910;42.652;23.332;2023-03-22T00:26:12;94291.81;;;9.15;100.00
23176;BME280;19910;42.652;23.332;2023-03-22T00:28:39;94288.34;;;9.06;100.00
23176;BME280;19910;42.652;23.332;2023-03-22T00:31:07;94280.22;;;9.06;100.00
23176;BME280;19910;42.652;23.332;2023-03-22T00:33:34;94279.75;;;9.04;100.00
23176;BME280;19910;42.652;23.332;2023-03-22T00:36:03;94286.09;;;9.08;100.00
23176;BME280;19910;42.652;23.332;2023-03-22T00:38:31;94278.78;;;9.09;100.00
23176;BME280;19910;42.652;23.332;2023-03-22T00:41:06;94282.47;;;9.04;100.00
23176;BME280;19910;42.652;23.332;2023-03-22T00:43:32;94277.44;;;8.94;100.00
23176;BME280;19910;42.652;23.332;2023-03-22T00:45:59;94274.56;;;8.99;100.00
23176;BME280;19910;42.652;23.332;2023-03-22T00:48:28;94278.47;;;9.10;100.00
23176;BME280;19910;42.652;23.332;2023-03-22T00:50:54;94283.09;;;9.10;100.00
23176;BME280;19910;42.652;23.332;2023-03-22T00:53:21;94279.97;;;8.99;100.00
23176;BME280;19910;42.652;23.332;2023-03-22T00:55:48;94279.34;;;8.94;100.00
23176;BME280;19910;42.652;23.332;2023-03-22T00:58:15;94276.81;;;8.88;100.00
23176;BME280;19910;42.652;23.332;2023-03-22T01:00:41;94277.91;;;8.96;100.00
23176;BME280;19910;42.652;23.332;2023-03-22T01:03:09;94284.59;;;8.90;100.00
23176;BME280;19910;42.652;23.332;2023-03-22T01:05:39;94270.34;;;8.81;100.00
23176;BME280;19910;42.652;23.332;2023-03-22T01:08:06;94273.69;;;8.86;100.00
23176;BME280;19910;42.652;23.332;2023-03-22T01:10:34;94266.38;;;8.87;100.00
23176;BME280;19910;42.652;23.332;2023-03-22T01:13:01;94264.34;;;8.75;100.00
23176;BME280;19910;42.652;23.332;2023-03-22T01:15:28;94263.66;;;8.87;100.00
23176;BME280;19910;42.652;23.332;2023-03-22T01:17:57;94263.38;;;8.80;100.00
23176;BME280;19910;42.652;23.332;2023-03-22T01:20:24;94262.72;;;8.83;100.00
23176;BME280;19910;42.652;23.332;2023-03-22T01:22:52;94260.41;;;8.73;100.00
23176;BME280;19910;42.652;23.332;2023-03-22T01:25:19;94264.53;;;8.70;100.00
23176;BME280;19910;42.652;23.332;2023-03-22T01:27:46;94258.59;;;8.77;100.00
23176;BME280;19910;42.652;23.332;2023-03-22T01:30:13;94257.97;;;8.80;100.00
23176;BME280;19910;42.652;23.332;2023-03-22T01:32:40;94260.19;;;8.78;100.00
23176;BME280;19910;42.652;23.332;2023-03-22T01:35:08;94254.16;;;8.81;100.00
23176;BME280;19910;42.652;23.332;2023-03-22T01:37:34;94260.84;;;8.75;100.00
23176;BME280;19910;42.652;23.332;2023-03-22T01:40:04;94255.16;;;8.68;100.00
23176;BME280;19910;42.652;23.332;2023-03-22T01:42:31;94257.69;;;8.73;100.00
23176;BME280;19910;42.652;23.332;2023-03-22T01:45:34;94255.09;;;8.85;100.00
23176;BME280;19910;42.652;23.332;2023-03-22T01:48:05;94257.69;;;8.73;100.00
23176;BME280;19910;42.652;23.332;2023-03-22T01:50:35;94247.25;;;8.63;100.00
23176;BME280;19910;42.652;23.332;2023-03-22T01:53:04;94248.34;;;8.62;100.00
23176;BME280;19910;42.652;23.332;2023-03-22T01:55:36;94249.28;;;8.66;100.00
23176;BME280;19910;42.652;23.332;2023-03-22T01:58:03;94252.84;;;8.58;100.00
23176;BME280;19910;42.652;23.332;2023-03-22T02:00:31;94248.47;;;8.74;100.00
23176;BME280;19910;42.652;23.332;2023-03-22T02:02:59;94249.94;;;8.63;100.00
23176;BME280;19910;42.652;23.332;2023-03-22T02:05:26;94245.06;;;8.47;100.00
23176;BME280;19910;42.652;23.332;2023-03-22T02:07:53;94248.91;;;8.46;100.00
23176;BME280;19910;42.652;23.332;2023-03-22T02:10:22;94245.88;;;8.48;100.00
23176;BME280;19910;42.652;23.332;2023-03-22T02:13:11;94244.50;;;8.33;100.00
23176;BME280;19910;42.652;23.332;2023-03-22T02:15:48;94239.41;;;8.40;100.00
23176;BME280;19910;42.652;23.332;2023-03-22T02:18:29;94237.97;;;8.43;100.00
23176;BME280;19910;42.652;23.332;2023-03-22T02:21:41;94245.22;;;8.51;100.00
23176;BME280;19910;42.652;23.332;2023-03-22T02:24:52;94242.88;;;8.41;100.00
23176;BME280;19910;42.652;23.332;2023-03-22T02:27:43;94243.38;;;8.43;100.00
23176;BME280;19910;42.652;23.332;2023-03-22T02:33:39;94249.41;;;8.40;100.00
23176;BME280;19910;42.652;23.332;2023-03-22T02:36:27;94260.50;;;8.38;100.00
23176;BME280;19910;42.652;23.332;2023-03-22T02:39:18;94269.09;;;8.40;100.00
23176;BME280;19910;42.652;23.332;2023-03-22T02:42:06;94262.91;;;8.31;100.00
23176;BME280;19910;42.652;23.332;2023-03-22T02:44:40;94255.13;;;8.38;100.00
23176;BME280;19910;42.652;23.332;2023-03-22T02:47:12;94266.38;;;8.40;100.00
23176;BME280;19910;42.652;23.332;2023-03-22T02:49:51;94268.91;;;8.45;100.00
23176;BME280;19910;42.652;23.332;2023-03-22T02:52:24;94276.81;;;8.50;100.00
23176;BME280;19910;42.652;23.332;2023-03-22T02:54:56;94272.38;;;8.54;100.00
23176;BME280;19910;42.652;23.332;2023-03-22T02:57:32;94264.28;;;8.54;100.00
23176;BME280;19910;42.652;23.332;2023-03-22T03:00:03;94269.66;;;8.54;100.00
23176;BME280;19910;42.652;23.332;2023-03-22T03:02:35;94269.84;;;8.49;100.00
23176;BME280;19910;42.652;23.332;2023-03-22T03:05:04;94267.34;;;8.44;100.00
23176;BME280;19910;42.652;23.332;2023-03-22T03:07:33;94264.31;;;8.37;100.00
23176;BME280;19910;42.652;23.332;2023-03-22T03:10:03;94269.41;;;8.39;100.00
23176;BME280;19910;42.652;23.332;2023-03-22T03:12:30;94267.03;;;8.37;100.00
23176;BME280;19910;42.652;23.332;2023-03-22T03:14:57;94277.19;;;8.40;100.00
23176;BME280;19910;42.652;23.332;2023-03-22T03:17:35;94281.16;;;8.34;100.00
23176;BME280;19910;42.652;23.332;2023-03-22T03:20:14;94277.81;;;8.37;100.00
23176;BME280;19910;42.652;23.332;2023-03-22T03:22:53;94276.53;;;8.43;100.00
23176;BME280;19910;42.652;23.332;2023-03-22T03:25:29;94282.22;;;8.50;100.00
23176;BME280;19910;42.652;23.332;2023-03-22T03:28:06;94274.59;;;8.52;100.00
23176;BME280;19910;42.652;23.332;2023-03-22T03:30:38;94276.50;;;8.61;100.00
23176;BME280;19910;42.652;23.332;2023-03-22T03:33:13;94280.44;;;8.63;100.00
23176;BME280;19910;42.652;23.332;2023-03-22T03:35:46;94280.09;;;8.65;100.00
23176;BME280;19910;42.652;23.332;2023-03-22T03:38:18;94279.78;;;8.66;100.00
23176;BME280;19910;42.652;23.332;2023-03-22T03:40:50;94282.63;;;8.70;100.00
23176;BME280;19910;42.652;23.332;2023-03-22T03:43:20;94270.63;;;8.50;100.00
23176;BME280;19910;42.652;23.332;2023-03-22T03:45:47;94288.59;;;8.46;100.00
23176;BME280;19910;42.652;23.332;2023-03-22T03:48:18;94290.19;;;8.38;100.00
23176;BME280;19910;42.652;23.332;2023-03-22T03:50:45;94284.81;;;8.38;100.00
23176;BME280;19910;42.652;23.332;2023-03-22T03:53:14;94283.53;;;8.36;100.00
23176;BME280;19910;42.652;23.332;2023-03-22T03:55:41;94290.69;;;8.40;100.00
23176;BME280;19910;42.652;23.332;2023-03-22T03:58:09;94291.00;;;8.39;100.00
23176;BME280;19910;42.652;23.332;2023-03-22T04:00:37;94290.50;;;8.45;100.00
23176;BME280;19910;42.652;23.332;2023-03-22T04:03:04;94294.44;;;8.48;100.00
23176;BME280;19910;42.652;23.332;2023-03-22T04:05:32;94295.91;;;8.45;100.00
23176;BME280;19910;42.652;23.332;2023-03-22T04:07:58;94294.81;;;8.38;100.00
23176;BME280;19910;42.652;23.332;2023-03-22T04:10:25;94296.22;;;8.35;100.00
23176;BME280;19910;42.652;23.332;2023-03-22T04:13:01;94292.41;;;8.36;100.00
23176;BME280;19910;42.652;23.332;2023-03-22T04:15:30;94298.94;;;8.35;100.00
23176;BME280;19910;42.652;23.332;2023-03-22T04:17:57;94304.81;;;8.20;100.00
23176;BME280;19910;42.652;23.332;2023-03-22T04:20:24;94297.19;;;8.22;100.00
23176;BME280;19910;42.652;23.332;2023-03-22T04:22:51;94297.34;;;8.26;100.00
23176;BME280;19910;42.652;23.332;2023-03-22T04:25:18;94307.06;;;8.18;100.00
23176;BME280;19910;42.652;23.332;2023-03-22T04:27:47;94309.28;;;8.16;100.00
23176;BME280;19910;42.652;23.332;2023-03-22T04:30:16;94298.16;;;8.09;100.00
23176;BME280;19910;42.652;23.332;2023-03-22T04:32:46;94301.34;;;8.11;100.00
23176;BME280;19910;42.652;23.332;2023-03-22T04:35:13;94303.25;;;8.19;100.00
23176;BME280;19910;42.652;23.332;2023-03-22T04:37:41;94306.25;;;8.09;100.00
23176;BME280;19910;42.652;23.332;2023-03-22T04:40:10;94309.28;;;8.16;100.00
23176;BME280;19910;42.652;23.332;2023-03-22T04:42:41;94310.84;;;8.17;100.00
23176;BME280;19910;42.652;23.332;2023-03-22T04:45:08;94316.13;;;8.05;100.00
23176;BME280;19910;42.652;23.332;2023-03-22T04:47:35;94316.09;;;8.13;100.00
23176;BME280;19910;42.652;23.332;2023-03-22T04:50:04;94323.25;;;8.18;100.00
23176;BME280;19910;42.652;23.332;2023-03-22T04:52:31;94322.13;;;8.10;100.00
23176;BME280;19910;42.652;23.332;2023-03-22T04:54:58;94321.31;;;8.10;100.00
23176;BME280;19910;42.652;23.332;2023-03-22T04:57:25;94337.69;;;8.13;100.00
23176;BME280;19910;42.652;23.332;2023-03-22T04:59:52;94336.25;;;8.16;100.00
23176;BME280;19910;42.652;23.332;2023-03-22T05:02:19;94332.09;;;8.27;100.00
23176;BME280;19910;42.652;23.332;2023-03-22T05:04:45;94334.31;;;8.25;100.00
23176;BME280;19910;42.652;23.332;2023-03-22T05:07:14;94331.31;;;8.27;100.00
23176;BME280;19910;42.652;23.332;2023-03-22T05:09:41;94331.94;;;8.24;100.00
23176;BME280;19910;42.652;23.332;2023-03-22T05:12:07;94344.16;;;8.21;100.00
23176;BME280;19910;42.652;23.332;2023-03-22T05:14:34;94352.09;;;8.35;100.00
23176;BME280;19910;42.652;23.332;2023-03-22T05:17:01;94343.84;;;8.31;100.00
23176;BME280;19910;42.652;23.332;2023-03-22T05:19:28;94333.53;;;8.42;100.00
23176;BME280;19910;42.652;23.332;2023-03-22T05:21:55;94346.41;;;8.36;100.00
23176;BME280;19910;42.652;23.332;2023-03-22T05:24:28;94342.59;;;8.37;100.00
23176;BME280;19910;42.652;23.332;2023-03-22T05:26:54;94347.97;;;8.54;100.00
23176;BME280;19910;42.652;23.332;2023-03-22T05:29:25;94347.00;;;8.50;100.00
23176;BME280;19910;42.652;23.332;2023-03-22T05:31:58;94348.16;;;8.41;100.00
23176;BME280;19910;42.652;23.332;2023-03-22T05:34:25;94357.19;;;8.28;100.00
23176;BME280;19910;42.652;23.332;2023-03-22T05:36:59;94357.84;;;8.33;100.00
23176;BME280;19910;42.652;23.332;2023-03-22T05:39:27;94349.06;;;8.53;100.00
23176;BME280;19910;42.652;23.332;2023-03-22T05:41:54;94353.50;;;8.49;100.00
23176;BME280;19910;42.652;23.332;2023-03-22T05:44:21;94351.78;;;8.45;100.00
23176;BME280;19910;42.652;23.332;2023-03-22T05:46:48;94360.03;;;8.48;100.00
23176;BME280;19910;42.652;23.332;2023-03-22T05:49:14;94361.13;;;8.56;100.00
23176;BME280;19910;42.652;23.332;2023-03-22T05:51:41;94357.16;;;8.53;100.00
23176;BME280;19910;42.652;23.332;2023-03-22T05:54:10;94366.03;;;8.63;100.00
23176;BME280;19910;42.652;23.332;2023-03-22T05:56:38;94360.31;;;8.73;100.00
23176;BME280;19910;42.652;23.332;2023-03-22T05:59:05;94373.69;;;8.61;100.00
23176;BME280;19910;42.652;23.332;2023-03-22T06:01:32;94373.34;;;8.71;100.00
23176;BME280;19910;42.652;23.332;2023-03-22T06:03:59;94377.16;;;8.70;100.00
23176;BME280;19910;42.652;23.332;2023-03-22T06:06:25;94379.97;;;8.82;100.00
23176;BME280;19910;42.652;23.332;2023-03-22T06:08:53;94377.91;;;8.87;100.00
23176;BME280;19910;42.652;23.332;2023-03-22T06:11:23;94379.47;;;8.88;100.00
23176;BME280;19910;42.652;23.332;2023-03-22T06:13:51;94385.94;;;9.05;100.00
23176;BME280;19910;42.652;23.332;2023-03-22T06:16:20;94372.41;;;9.13;100.00
23176;BME280;19910;42.652;23.332;2023-03-22T06:18:47;94376.63;;;9.23;100.00
23176;BME280;19910;42.652;23.332;2023-03-22T06:21:13;94373.03;;;9.10;100.00
23176;BME280;19910;42.652;23.332;2023-03-22T06:23:40;94378.81;;;9.00;99.43
23176;BME280;19910;42.652;23.332;2023-03-22T06:26:07;94374.53;;;8.99;100.00
23176;BME280;19910;42.652;23.332;2023-03-22T06:28:35;94385.44;;;9.03;100.00
23176;BME280;19910;42.652;23.332;2023-03-22T06:31:06;94377.59;;;9.18;100.00
23176;BME280;19910;42.652;23.332;2023-03-22T06:33:33;94378.38;;;9.27;99.98
23176;BME280;19910;42.652;23.332;2023-03-22T06:36:00;94378.81;;;9.30;100.00
23176;BME280;19910;42.652;23.332;2023-03-22T06:38:27;94384.91;;;9.18;99.30
23176;BME280;19910;42.652;23.332;2023-03-22T06:40:54;94386.19;;;9.20;100.00
23176;BME280;19910;42.652;23.332;2023-03-22T06:43:21;94392.22;;;9.17;100.00
23176;BME280;19910;42.652;23.332;2023-03-22T06:45:48;94388.34;;;9.36;99.71
23176;BME280;19910;42.652;23.332;2023-03-22T06:48:19;94390.88;;;9.41;99.50
23176;BME280;19910;42.652;23.332;2023-03-22T06:50:46;94400.00;;;9.57;100.00
23176;BME280;19910;42.652;23.332;2023-03-22T06:53:12;94396.47;;;9.65;99.48
23176;BME280;19910;42.652;23.332;2023-03-22T06:55:39;94395.81;;;9.68;98.97
23176;BME280;19910;42.652;23.332;2023-03-22T06:58:06;94398.69;;;9.63;97.21
23176;BME280;19910;42.652;23.332;2023-03-22T07:00:33;94399.34;;;9.60;97.05
23176;BME280;19910;42.652;23.332;2023-03-22T07:03:00;94398.31;;;9.73;97.09
23176;BME280;19910;42.652;23.332;2023-03-22T07:05:29;94413.91;;;9.76;95.91
23176;BME280;19910;42.652;23.332;2023-03-22T07:07:56;94410.16;;;9.60;94.85
23176;BME280;19910;42.652;23.332;2023-03-22T07:10:23;94420.81;;;9.65;93.98
23176;BME280;19910;42.652;23.332;2023-03-22T07:12:49;94413.28;;;9.71;94.41
23176;BME280;19910;42.652;23.332;2023-03-22T07:15:16;94415.09;;;9.87;93.59
23176;BME280;19910;42.652;23.332;2023-03-22T07:17:48;94423.97;;;9.96;93.57
23176;BME280;19910;42.652;23.332;2023-03-22T07:20:15;94420.97;;;10.19;92.26
23176;BME280;19910;42.652;23.332;2023-03-22T07:22:43;94423.38;;;10.12;92.84
23176;BME280;19910;42.652;23.332;2023-03-22T07:25:10;94423.69;;;10.19;92.84
23176;BME280;19910;42.652;23.332;2023-03-22T07:27:37;94418.19;;;10.27;93.09
23176;BME280;19910;42.652;23.332;2023-03-22T07:30:06;94422.44;;;10.37;93.20
23176;BME280;19910;42.652;23.332;2023-03-22T07:32:32;94439.06;;;10.27;93.82
23176;BME280;19910;42.652;23.332;2023-03-22T07:34:59;94435.28;;;10.40;93.92
23176;BME280;19910;42.652;23.332;2023-03-22T07:37:26;94429.88;;;10.40;94.01
23176;BME280;19910;42.652;23.332;2023-03-22T07:39:54;94431.41;;;10.29;93.59
23176;BME280;19910;42.652;23.332;2023-03-22T07:42:21;94434.00;;;10.17;93.01
23176;BME280;19910;42.652;23.332;2023-03-22T07:44:48;94439.72;;;10.24;92.05
23176;BME280;19910;42.652;23.332;2023-03-22T07:47:15;94434.97;;;10.21;91.83
23176;BME280;19910;42.652;23.332;2023-03-22T07:49:41;94441.53;;;10.11;90.04
23176;BME280;19910;42.652;23.332;2023-03-22T07:52:08;94443.63;;;10.06;90.21
23176;BME280;19910;42.652;23.332;2023-03-22T07:54:35;94446.59;;;10.21;91.53
23176;BME280;19910;42.652;23.332;2023-03-22T07:57:03;94449.63;;;10.20;92.30
23176;BME280;19910;42.652;23.332;2023-03-22T07:59:31;94447.88;;;10.15;91.59
23176;BME280;19910;42.652;23.332;2023-03-22T08:09:37;94449.06;;;10.06;91.57
23176;BME280;19910;42.652;23.332;2023-03-22T08:12:05;94445.63;;;10.17;91.40
23176;BME280;19910;42.652;23.332;2023-03-22T08:14:32;94443.56;;;10.23;91.99
23176;BME280;19910;42.652;23.332;2023-03-22T08:17:00;94448.97;;;10.23;91.16
23176;BME280;19910;42.652;23.332;2023-03-22T08:19:26;94445.94;;;10.24;91.94
23176;BME280;19910;42.652;23.332;2023-03-22T08:21:54;94445.34;;;10.19;91.91
23176;BME280;19910;42.652;23.332;2023-03-22T08:26:56;94450.97;;;10.35;91.62
23176;BME280;19910;42.652;23.332;2023-03-22T08:29:25;94447.50;;;10.25;90.56
23176;BME280;19910;42.652;23.332;2023-03-22T08:31:51;94454.72;;;10.13;91.83
23176;BME280;19910;42.652;23.332;2023-03-22T08:34:19;94449.13;;;10.18;91.15
23176;BME280;19910;42.652;23.332;2023-03-22T08:36:46;94456.69;;;10.33;91.62
23176;BME280;19910;42.652;23.332;2023-03-22T08:39:12;94453.34;;;10.36;90.75
23176;BME280;19910;42.652;23.332;2023-03-22T08:41:39;94459.41;;;10.33;91.11
23176;BME280;19910;42.652;23.332;2023-03-22T08:44:06;94450.81;;;10.31;90.37
23176;BME280;19910;42.652;23.332;2023-03-22T08:46:34;94464.91;;;10.16;89.89
23176;BME280;19910;42.652;23.332;2023-03-22T08:49:01;94451.03;;;10.17;89.85
23176;BME280;19910;42.652;23.332;2023-03-22T08:51:28;94461.47;;;10.36;90.25
23176;BME280;19910;42.652;23.332;2023-03-22T08:53:56;94467.19;;;10.35;90.06
23176;BME280;19910;42.652;23.332;2023-03-22T08:56:24;94459.53;;;10.37;90.24
23176;BME280;19910;42.652;23.332;2023-03-22T08:58:51;94469.69;;;10.19;90.34
23176;BME280;19910;42.652;23.332;2023-03-22T09:01:18;94470.63;;;10.23;93.16
23176;BME280;19910;42.652;23.332;2023-03-22T09:03:47;94478.91;;;10.18;92.50
23176;BME280;19910;42.652;23.332;2023-03-22T09:18:16;94464.41;;;10.43;92.26
23176;BME280;19910;42.652;23.332;2023-03-22T10:11:20;94475.03;;;11.92;88.09
23176;BME280;19910;42.652;23.332;2023-03-22T10:13:57;94487.09;;;11.70;86.68
23176;BME280;19910;42.652;23.332;2023-03-22T10:19:05;94485.41;;;11.78;84.77
23176;BME280;19910;42.652;23.332;2023-03-22T10:21:34;94484.34;;;11.46;84.84
23176;BME280;19910;42.652;23.332;2023-03-22T10:24:04;94481.84;;;11.53;84.21
23176;BME280;19910;42.652;23.332;2023-03-22T10:26:37;94485.84;;;11.68;84.91
23176;BME280;19910;42.652;23.332;2023-03-22T10:29:10;94484.25;;;11.67;84.38
23176;BME280;19910;42.652;23.332;2023-03-22T10:31:41;94478.28;;;11.61;84.67
23176;BME280;19910;42.652;23.332;2023-03-22T10:34:15;94481.31;;;11.60;85.58
23176;BME280;19910;42.652;23.332;2023-03-22T10:36:46;94480.94;;;11.49;87.02
23176;BME280;19910;42.652;23.332;2023-03-22T10:39:24;94483.22;;;11.47;87.56
23176;BME280;19910;42.652;23.332;2023-03-22T10:41:54;94485.38;;;11.54;85.84
23176;BME280;19910;42.652;23.332;2023-03-22T10:44:23;94479.94;;;11.54;87.09
23176;BME280;19910;42.652;23.332;2023-03-22T10:46:51;94481.84;;;11.53;87.05
23176;BME280;19910;42.652;23.332;2023-03-22T10:49:24;94481.13;;;11.77;86.89
23176;BME280;19910;42.652;23.332;2023-03-22T10:51:55;94480.41;;;11.68;86.28
23176;BME280;19910;42.652;23.332;2023-03-22T10:54:24;94482.78;;;11.69;86.31
23176;BME280;19910;42.652;23.332;2023-03-22T10:56:52;94468.22;;;11.74;85.30
23176;BME280;19910;42.652;23.332;2023-03-22T10:59:42;94478.31;;;11.98;83.79
23176;BME280;19910;42.652;23.332;2023-03-22T11:02:20;94478.41;;;11.77;83.51
23176;BME280;19910;42.652;23.332;2023-03-22T11:04:48;94475.03;;;11.80;83.43
23176;BME280;19910;42.652;23.332;2023-03-22T11:07:29;94477.84;;;11.96;80.36
23176;BME280;19910;42.652;23.332;2023-03-22T11:10:16;94470.63;;;12.00;83.04
23176;BME280;19910;42.652;23.332;2023-03-22T11:12:49;94471.84;;;11.90;82.27
23176;BME280;19910;42.652;23.332;2023-03-22T11:15:23;94468.91;;;11.95;82.11
23176;BME280;19910;42.652;23.332;2023-03-22T11:17:53;94466.66;;;11.97;81.72
23176;BME280;19910;42.652;23.332;2023-03-22T11:20:22;94472.09;;;11.97;81.42
23176;BME280;19910;42.652;23.332;2023-03-22T11:22:49;94462.56;;;11.91;82.50
23176;BME280;19910;42.652;23.332;2023-03-22T11:25:20;94455.66;;;12.06;82.16
23176;BME280;19910;42.652;23.332;2023-03-22T11:27:51;94454.66;;;11.98;82.66
23176;BME280;19910;42.652;23.332;2023-03-22T11:30:21;94469.16;;;12.02;80.73
23176;BME280;19910;42.652;23.332;2023-03-22T11:32:48;94456.03;;;11.80;80.88
23176;BME280;19910;42.652;23.332;2023-03-22T11:35:24;94461.84;;;11.46;81.55
23176;BME280;19910;42.652;23.332;2023-03-22T11:37:53;94464.41;;;11.30;82.37
23176;BME280;19910;42.652;23.332;2023-03-22T11:40:21;94454.25;;;11.27;82.17
23176;BME280;19910;42.652;23.332;2023-03-22T11:42:52;94461.13;;;11.24;86.08
23176;BME280;19910;42.652;23.332;2023-03-22T11:45:24;94461.38;;;11.31;85.44
23176;BME280;19910;42.652;23.332;2023-03-22T11:47:52;94464.47;;;11.09;85.82
23176;BME280;19910;42.652;23.332;2023-03-22T11:50:26;94465.03;;;11.02;86.25
23176;BME280;19910;42.652;23.332;2023-03-22T11:52:53;94464.59;;;11.13;86.50
23176;BME280;19910;42.652;23.332;2023-03-22T11:55:22;94469.19;;;11.00;86.71
23176;BME280;19910;42.652;23.332;2023-03-22T11:57:55;94466.63;;;11.03;84.25
23176;BME280;19910;42.652;23.332;2023-03-22T12:00:24;94473.22;;;10.94;81.92
23176;BME280;19910;42.652;23.332;2023-03-22T12:02:55;94468.25;;;10.63;82.74
23176;BME280;19910;42.652;23.332;2023-03-22T12:05:24;94463.47;;;10.81;85.27
23176;BME280;19910;42.652;23.332;2023-03-22T12:07:57;94468.84;;;11.01;85.68
23176;BME280;19910;42.652;23.332;2023-03-22T12:10:28;94465.16;;;11.06;82.68
23176;BME280;19910;42.652;23.332;2023-03-22T12:12:59;94467.44;;;11.16;82.86
23176;BME280;19910;42.652;23.332;2023-03-22T12:15:29;94461.59;;;11.38;82.24
23176;BME280;19910;42.652;23.332;2023-03-22T12:17:59;94465.97;;;11.76;82.49
23176;BME280;19910;42.652;23.332;2023-03-22T12:20:39;94459.41;;;11.89;81.70
23176;BME280;19910;42.652;23.332;2023-03-22T12:23:16;94458.66;;;11.89;79.18
23176;BME280;19910;42.652;23.332;2023-03-22T12:25:48;94458.72;;;11.92;79.85
23176;BME280;19910;42.652;23.332;2023-03-22T12:28:20;94451.50;;;11.96;78.82
23176;BME280;19910;42.652;23.332;2023-03-22T12:30:50;94440.59;;;12.21;80.35
23176;BME280;19910;42.652;23.332;2023-03-22T12:33:20;94449.59;;;12.49;78.91
23176;BME280;19910;42.652;23.332;2023-03-22T12:35:50;94447.28;;;12.23;77.44
23176;BME280;19910;42.652;23.332;2023-03-22T12:38:27;94449.53;;;12.73;79.55
23176;BME280;19910;42.652;23.332;2023-03-22T12:41:01;94449.06;;;12.84;78.03
23176;BME280;19910;42.652;23.332;2023-03-22T12:43:43;94435.03;;;12.81;76.68
23176;BME280;19910;42.652;23.332;2023-03-22T12:46:17;94433.72;;;13.19;75.85
23176;BME280;19910;42.652;23.332;2023-03-22T12:48:46;94440.34;;;13.34;73.88
23176;BME280;19910;42.652;23.332;2023-03-22T12:51:14;94427.94;;;13.83;73.98
23176;BME280;19910;42.652;23.332;2023-03-22T12:53:43;94427.69;;;14.04;70.15
23176;BME280;19910;42.652;23.332;2023-03-22T12:56:13;94437.53;;;13.93;71.68
23176;BME280;19910;42.652;23.332;2023-03-22T12:58:45;94438.28;;;14.09;71.07
23176;BME280;19910;42.652;23.332;2023-03-22T13:01:22;94432.72;;;13.71;71.04
23176;BME280;19910;42.652;23.332;2023-03-22T13:03:53;94432.00;;;13.74;69.88
23176;BME280;19910;42.652;23.332;2023-03-22T13:06:33;94430.97;;;13.63;70.91
23176;BME280;19910;42.652;23.332;2023-03-22T13:09:34;94437.00;;;13.40;71.91
23176;BME280;19910;42.652;23.332;2023-03-22T13:12:27;94434.88;;;13.18;72.89
23176;BME280;19910;42.652;23.332;2023-03-22T13:15:16;94445.13;;;12.17;73.43
23176;BME280;19910;42.652;23.332;2023-03-22T13:17:49;94440.19;;;12.06;76.87
23176;BME280;19910;42.652;23.332;2023-03-22T13:20:24;94442.88;;;12.19;75.87
23176;BME280;19910;42.652;23.332;2023-03-22T13:23:24;94441.53;;;12.13;75.67
23176;BME280;19910;42.652;23.332;2023-03-22T13:26:01;94434.63;;;12.15;76.06
23176;BME280;19910;42.652;23.332;2023-03-22T13:28:28;94432.94;;;12.10;75.67
23176;BME280;19910;42.652;23.332;2023-03-22T13:31:03;94430.16;;;12.35;75.28
23176;BME280;19910;42.652;23.332;2023-03-22T13:33:32;94425.00;;;12.30;76.52
23176;BME280;19910;42.652;23.332;2023-03-22T13:36:05;94433.41;;;12.00;77.09
23176;BME280;19910;42.652;23.332;2023-03-22T13:38:34;94427.41;;;12.07;78.88
23176;BME280;19910;42.652;23.332;2023-03-22T13:41:04;94427.69;;;12.42;78.58
23176;BME280;19910;42.652;23.332;2023-03-22T13:43:34;94431.56;;;12.69;77.45
23176;BME280;19910;42.652;23.332;2023-03-22T13:46:12;94430.94;;;12.75;78.62
23176;BME280;19910;42.652;23.332;2023-03-22T13:51:54;94434.56;;;12.52;77.57
23176;BME280;19910;42.652;23.332;2023-03-22T13:54:28;94434.94;;;12.38;76.38
23176;BME280;19910;42.652;23.332;2023-03-22T13:56:58;94447.34;;;12.51;75.57
23176;BME280;19910;42.652;23.332;2023-03-22T13:59:28;94435.84;;;12.98;75.27
23176;BME280;19910;42.652;23.332;2023-03-22T14:02:02;94434.97;;;12.94;73.23
23176;BME280;19910;42.652;23.332;2023-03-22T14:04:35;94432.75;;;13.27;74.43
23176;BME280;19910;42.652;23.332;2023-03-22T14:07:10;94435.84;;;13.41;72.17
23176;BME280;19910;42.652;23.332;2023-03-22T14:09:43;94428.34;;;13.50;72.74
23176;BME280;19910;42.652;23.332;2023-03-22T14:12:18;94436.19;;;12.96;71.83
23176;BME280;19910;42.652;23.332;2023-03-22T14:14:49;94429.88;;;12.64;71.32
23176;BME280;19910;42.652;23.332;2023-03-22T14:17:26;94443.22;;;12.69;73.55
23176;BME280;19910;42.652;23.332;2023-03-22T14:19:55;94433.03;;;12.66;73.16
23176;BME280;19910;42.652;23.332;2023-03-22T14:22:26;94435.47;;;12.84;74.14
23176;BME280;19910;42.652;23.332;2023-03-22T14:24:55;94442.72;;;12.79;73.22
23176;BME280;19910;42.652;23.332;2023-03-22T14:27:23;94438.03;;;12.64;74.80
23176;BME280;19910;42.652;23.332;2023-03-22T14:29:50;94432.47;;;12.21;75.31